sensor_id;sensor_type;location;lat;lon;timestamp;noise_LAeq;noise_LA_min;noise_LA_max;noise_LA01;noise_LA95
41518;Laerm;27249;48.094;-1.690;2023-02-28T00:00:07;49.62;41.38;61.25;;
41518;Laerm;27249;48.094;-1.690;2023-02-28T00:02:37;52.21;41.06;63.27;;
41518;Laerm;27249;48.094;-1.690;2023-02-28T00:05:03;44.69;40.71;54.40;;
41518;Laerm;27249;48.094;-1.690;2023-02-28T00:07:31;42.74;39.08;46.66;;
41518;Laerm;27249;48.094;-1.690;2023-02-28T00:09:56;45.17;40.03;57.59;;
41518;Laerm;27249;48.094;-1.690;2023-02-28T00:12:21;49.22;39.70;60.69;;
41518;Laerm;27249;48.094;-1.690;2023-02-28T00:14:47;45.93;39.58;58.48;;
41518;Laerm;27249;48.094;-1.690;2023-02-28T00:17:12;51.76;40.43;71.41;;
41518;Laerm;27249;48.094;-1.690;2023-02-28T00:19:37;49.75;41.06;61.75;;
41518;Laerm;27249;48.094;-1.690;2023-02-28T00:22:02;50.58;39.58;63.33;;
41518;Laerm;27249;48.094;-1.690;2023-02-28T00:24:27;43.29;39.81;46.91;;
41518;Laerm;27249;48.094;-1.690;2023-02-28T00:26:53;43.17;40.53;49.27;;
41518;Laerm;27249;48.094;-1.690;2023-02-28T00:29:18;46.61;39.21;59.39;;
41518;Laerm;27249;48.094;-1.690;2023-02-28T00:31:43;42.79;40.03;51.57;;
41518;Laerm;27249;48.094;-1.690;2023-02-28T00:34:08;44.40;40.53;57.83;;
41518;Laerm;27249;48.094;-1.690;2023-02-28T00:38:33;42.67;40.03;51.40;;
41518;Laerm;27249;48.094;-1.690;2023-02-28T00:40:58;45.47;40.53;57.01;;
41518;Laerm;27249;48.094;-1.690;2023-02-28T00:43:29;42.93;40.03;50.06;;
41518;Laerm;27249;48.094;-1.690;2023-02-28T00:45:54;42.62;39.58;53.76;;
41518;Laerm;27249;48.094;-1.690;2023-02-28T00:48:19;42.95;40.03;50.08;;
41518;Laerm;27249;48.094;-1.690;2023-02-28T00:50:47;43.06;40.53;46.55;;
41518;Laerm;27249;48.094;-1.690;2023-02-28T00:53:13;46.39;39.46;62.75;;
41518;Laerm;27249;48.094;-1.690;2023-02-28T00:55:38;42.70;38.52;46.59;;
41518;Laerm;27249;48.094;-1.690;2023-02-28T00:58:03;44.66;39.70;57.97;;
41518;Laerm;27249;48.094;-1.690;2023-02-28T01:00:28;43.92;39.46;59.49;;
41518;Laerm;27249;48.094;-1.690;2023-02-28T01:02:54;42.31;38.95;48.54;;
41518;Laerm;27249;48.094;-1.690;2023-02-28T01:05:19;42.40;39.21;48.13;;
41518;Laerm;27249;48.094;-1.690;2023-02-28T01:07:44;42.67;39.46;54.25;;
41518;Laerm;27249;48.094;-1.690;2023-02-28T01:10:09;50.45;38.21;66.38;;
41518;Laerm;27249;48.094;-1.690;2023-02-28T01:12:35;43.10;39.21;50.09;;
41518;Laerm;27249;48.094;-1.690;2023-02-28T01:15:00;44.80;40.43;60.74;;
41518;Laerm;27249;48.094;-1.690;2023-02-28T01:17:25;43.23;39.34;50.14;;
41518;Laerm;27249;48.094;-1.690;2023-02-28T01:19:52;51.43;40.33;63.54;;
41518;Laerm;27249;48.094;-1.690;2023-02-28T01:22:18;48.12;40.03;59.69;;
41518;Laerm;27249;48.094;-1.690;2023-02-28T01:24:43;43.54;40.62;56.93;;
41518;Laerm;27249;48.094;-1.690;2023-02-28T01:27:08;45.07;41.06;55.94;;
41518;Laerm;27249;48.094;-1.690;2023-02-28T01:29:33;42.62;38.81;56.85;;
41518;Laerm;27249;48.094;-1.690;2023-02-28T01:31:58;42.83;39.46;52.96;;
41518;Laerm;27249;48.094;-1.690;2023-02-28T01:34:24;44.13;39.81;55.49;;
41518;Laerm;27249;48.094;-1.690;2023-02-28T01:36:49;42.55;39.81;46.25;;
41518;Laerm;27249;48.094;-1.690;2023-02-28T01:39:15;43.41;40.03;66.08;;
41518;Laerm;27249;48.094;-1.690;2023-02-28T01:41:40;47.04;37.52;61.65;;
41518;Laerm;27249;48.094;-1.690;2023-02-28T01:46:32;42.64;39.21;45.20;;
41518;Laerm;27249;48.094;-1.690;2023-02-28T01:49:13;46.65;40.71;58.85;;
41518;Laerm;27249;48.094;-1.690;2023-02-28T01:51:44;46.33;40.71;59.23;;
41518;Laerm;27249;48.094;-1.690;2023-02-28T01:54:12;46.89;38.05;62.87;;
41518;Laerm;27249;48.094;-1.690;2023-02-28T01:56:42;46.30;40.71;61.31;;
41518;Laerm;27249;48.094;-1.690;2023-02-28T01:59:08;45.15;40.33;64.65;;
41518;Laerm;27249;48.094;-1.690;2023-02-28T02:01:34;44.08;39.92;61.01;;
41518;Laerm;27249;48.094;-1.690;2023-02-28T02:04:01;42.78;40.43;46.52;;
41518;Laerm;27249;48.094;-1.690;2023-02-28T02:06:45;48.92;40.23;63.57;;
41518;Laerm;27249;48.094;-1.690;2023-02-28T02:09:12;49.21;39.81;62.78;;
41518;Laerm;27249;48.094;-1.690;2023-02-28T02:11:38;42.64;39.46;44.76;;
41518;Laerm;27249;48.094;-1.690;2023-02-28T02:16:52;42.92;40.33;45.30;;
41518;Laerm;27249;48.094;-1.690;2023-02-28T02:30:02;42.75;39.81;45.14;;
41518;Laerm;27249;48.094;-1.690;2023-02-28T02:37:30;42.72;39.34;54.14;;
41518;Laerm;27249;48.094;-1.690;2023-02-28T02:40:04;48.10;41.14;59.05;;
41518;Laerm;27249;48.094;-1.690;2023-02-28T02:45:12;50.02;40.03;64.19;;
41518;Laerm;27249;48.094;-1.690;2023-02-28T02:47:40;42.91;40.03;47.08;;
41518;Laerm;27249;48.094;-1.690;2023-02-28T02:50:08;45.58;40.80;55.83;;
41518;Laerm;27249;48.094;-1.690;2023-02-28T02:52:43;50.09;40.71;67.83;;
41518;Laerm;27249;48.094;-1.690;2023-02-28T02:55:10;44.74;40.98;60.08;;
41518;Laerm;27249;48.094;-1.690;2023-02-28T02:57:38;46.89;40.98;61.39;;
41518;Laerm;27249;48.094;-1.690;2023-02-28T03:00:05;43.39;40.13;57.34;;
41518;Laerm;27249;48.094;-1.690;2023-02-28T03:02:34;44.33;39.58;57.13;;
41518;Laerm;27249;48.094;-1.690;2023-02-28T03:05:02;47.11;40.80;58.69;;
41518;Laerm;27249;48.094;-1.690;2023-02-28T03:07:29;43.06;40.53;47.65;;
41518;Laerm;27249;48.094;-1.690;2023-02-28T03:09:55;45.93;40.03;56.00;;
41518;Laerm;27249;48.094;-1.690;2023-02-28T03:12:21;47.02;40.53;59.19;;
41518;Laerm;27249;48.094;-1.690;2023-02-28T03:27:57;43.47;40.62;49.53;;
41518;Laerm;27249;48.094;-1.690;2023-02-28T03:30:48;49.46;40.80;60.49;;
41518;Laerm;27249;48.094;-1.690;2023-02-28T03:33:20;50.99;41.33;62.47;;
41518;Laerm;27249;48.094;-1.690;2023-02-28T03:35:50;48.78;40.80;62.03;;
41518;Laerm;27249;48.094;-1.690;2023-02-28T03:38:18;48.82;40.89;62.91;;
41518;Laerm;27249;48.094;-1.690;2023-02-28T03:40:47;44.39;40.89;53.87;;
41518;Laerm;27249;48.094;-1.690;2023-02-28T03:43:15;54.44;41.46;67.79;;
41518;Laerm;27249;48.094;-1.690;2023-02-28T03:45:43;48.62;40.43;62.68;;
41518;Laerm;27249;48.094;-1.690;2023-02-28T03:48:12;51.47;40.62;64.46;;
41518;Laerm;27249;48.094;-1.690;2023-02-28T03:50:45;51.70;41.68;63.61;;
41518;Laerm;27249;48.094;-1.690;2023-02-28T03:53:32;51.22;41.96;62.20;;
41518;Laerm;27249;48.094;-1.690;2023-02-28T03:56:01;46.89;40.33;61.71;;
41518;Laerm;27249;48.094;-1.690;2023-02-28T04:01:08;46.63;40.80;57.05;;
41518;Laerm;27249;48.094;-1.690;2023-02-28T04:03:37;49.40;41.38;61.94;;
41518;Laerm;27249;48.094;-1.690;2023-02-28T04:06:04;52.46;43.58;65.83;;
41518;Laerm;27249;48.094;-1.690;2023-02-28T04:08:29;47.16;40.79;60.12;;
41518;Laerm;27249;48.094;-1.690;2023-02-28T04:11:00;52.71;40.80;65.97;;
41518;Laerm;27249;48.094;-1.690;2023-02-28T04:13:27;47.37;40.63;58.34;;
41518;Laerm;27249;48.094;-1.690;2023-02-28T04:15:52;50.72;42.00;64.00;;
41518;Laerm;27249;48.094;-1.690;2023-02-28T04:18:17;47.73;40.98;62.16;;
41518;Laerm;27249;48.094;-1.690;2023-02-28T04:20:42;51.92;41.22;62.31;;
41518;Laerm;27249;48.094;-1.690;2023-02-28T04:23:07;48.11;40.53;63.27;;
41518;Laerm;27249;48.094;-1.690;2023-02-28T04:25:33;43.34;40.03;50.14;;
41518;Laerm;27249;48.094;-1.690;2023-02-28T04:27:58;47.84;41.30;59.25;;
41518;Laerm;27249;48.094;-1.690;2023-02-28T04:30:23;49.27;39.70;60.47;;
41518;Laerm;27249;48.094;-1.690;2023-02-28T04:32:48;50.19;40.98;63.50;;
41518;Laerm;27249;48.094;-1.690;2023-02-28T04:35:14;49.29;41.68;63.90;;
41518;Laerm;27249;48.094;-1.690;2023-02-28T04:37:39;47.79;40.71;62.30;;
41518;Laerm;27249;48.094;-1.690;2023-02-28T04:40:04;51.43;41.46;63.48;;
41518;Laerm;27249;48.094;-1.690;2023-02-28T04:42:30;49.93;41.38;63.88;;
41518;Laerm;27249;48.094;-1.690;2023-02-28T04:45:01;50.38;42.16;62.10;;
41518;Laerm;27249;48.094;-1.690;2023-02-28T04:47:26;54.08;42.29;62.47;;
41518;Laerm;27249;48.094;-1.690;2023-02-28T04:49:51;45.98;40.89;55.79;;
41518;Laerm;27249;48.094;-1.690;2023-02-28T04:52:17;51.05;42.47;60.54;;
41518;Laerm;27249;48.094;-1.690;2023-02-28T04:54:42;53.97;42.09;64.41;;
41518;Laerm;27249;48.094;-1.690;2023-02-28T04:57:07;53.37;42.65;70.09;;
41518;Laerm;27249;48.094;-1.690;2023-02-28T04:59:32;54.22;45.04;63.49;;
41518;Laerm;27249;48.094;-1.690;2023-02-28T05:01:58;48.92;41.82;58.71;;
41518;Laerm;27249;48.094;-1.690;2023-02-28T05:04:23;53.30;42.65;62.19;;
41518;Laerm;27249;48.094;-1.690;2023-02-28T05:06:48;54.18;44.76;63.42;;
41518;Laerm;27249;48.094;-1.690;2023-02-28T05:09:13;54.30;42.71;74.33;;
41518;Laerm;27249;48.094;-1.690;2023-02-28T05:11:38;45.47;42.16;53.68;;
41518;Laerm;27249;48.094;-1.690;2023-02-28T05:14:05;48.97;42.09;59.54;;
41518;Laerm;27249;48.094;-1.690;2023-02-28T05:16:31;54.80;44.15;63.97;;
41518;Laerm;27249;48.094;-1.690;2023-02-28T05:18:57;54.06;43.72;62.13;;
41518;Laerm;27249;48.094;-1.690;2023-02-28T05:23:48;53.73;43.09;63.01;;
41518;Laerm;27249;48.094;-1.690;2023-02-28T05:26:14;53.45;44.07;64.68;;
41518;Laerm;27249;48.094;-1.690;2023-02-28T05:28:39;50.72;42.41;62.49;;
41518;Laerm;27249;48.094;-1.690;2023-02-28T05:31:04;55.04;44.07;64.92;;
41518;Laerm;27249;48.094;-1.690;2023-02-28T05:33:29;52.88;44.72;65.07;;
41518;Laerm;27249;48.094;-1.690;2023-02-28T05:35:54;54.28;43.90;72.61;;
41518;Laerm;27249;48.094;-1.690;2023-02-28T05:38:20;51.83;42.65;65.89;;
41518;Laerm;27249;48.094;-1.690;2023-02-28T05:40:45;51.58;42.71;64.94;;
41518;Laerm;27249;48.094;-1.690;2023-02-28T05:43:11;52.52;43.72;62.86;;
41518;Laerm;27249;48.094;-1.690;2023-02-28T05:45:36;52.52;43.19;62.85;;
41518;Laerm;27249;48.094;-1.690;2023-02-28T05:48:02;55.39;44.83;62.35;;
41518;Laerm;27249;48.094;-1.690;2023-02-28T05:50:27;53.68;45.86;64.18;;
41518;Laerm;27249;48.094;-1.690;2023-02-28T05:52:52;58.96;46.69;72.12;;
41518;Laerm;27249;48.094;-1.690;2023-02-28T05:55:17;55.89;44.42;64.73;;
41518;Laerm;27249;48.094;-1.690;2023-02-28T05:57:43;54.30;43.77;64.74;;
41518;Laerm;27249;48.094;-1.690;2023-02-28T06:00:09;55.05;45.48;61.54;;
41518;Laerm;27249;48.094;-1.690;2023-02-28T06:02:34;54.90;45.75;64.66;;
41518;Laerm;27249;48.094;-1.690;2023-02-28T06:04:59;55.32;46.03;63.01;;
41518;Laerm;27249;48.094;-1.690;2023-02-28T06:07:27;53.43;45.89;62.78;;
41518;Laerm;27249;48.094;-1.690;2023-02-28T06:09:52;55.40;47.16;62.92;;
41518;Laerm;27249;48.094;-1.690;2023-02-28T06:12:17;55.88;46.80;64.52;;
41518;Laerm;27249;48.094;-1.690;2023-02-28T06:14:42;56.19;46.84;64.62;;
41518;Laerm;27249;48.094;-1.690;2023-02-28T06:17:08;57.59;47.77;64.03;;
41518;Laerm;27249;48.094;-1.690;2023-02-28T06:19:34;57.42;50.89;67.18;;
41518;Laerm;27249;48.094;-1.690;2023-02-28T06:21:59;55.74;47.93;64.87;;
41518;Laerm;27249;48.094;-1.690;2023-02-28T06:24:25;56.53;44.83;67.36;;
41518;Laerm;27249;48.094;-1.690;2023-02-28T06:26:52;57.24;51.40;64.22;;
41518;Laerm;27249;48.094;-1.690;2023-02-28T06:29:18;58.07;48.71;72.72;;
41518;Laerm;27249;48.094;-1.690;2023-02-28T06:31:46;57.67;51.43;62.86;;
41518;Laerm;27249;48.094;-1.690;2023-02-28T06:34:12;56.18;48.42;64.62;;
41518;Laerm;27249;48.094;-1.690;2023-02-28T06:36:38;59.26;50.43;72.98;;
41518;Laerm;27249;48.094;-1.690;2023-02-28T06:39:04;57.77;50.71;64.08;;
41518;Laerm;27249;48.094;-1.690;2023-02-28T06:41:29;57.36;49.63;63.76;;
41518;Laerm;27249;48.094;-1.690;2023-02-28T06:43:54;58.97;49.77;71.25;;
41518;Laerm;27249;48.094;-1.690;2023-02-28T06:46:20;57.30;49.32;66.23;;
41518;Laerm;27249;48.094;-1.690;2023-02-28T06:48:45;57.83;52.26;62.33;;
41518;Laerm;27249;48.094;-1.690;2023-02-28T06:51:12;56.98;50.49;62.66;;
41518;Laerm;27249;48.094;-1.690;2023-02-28T06:53:39;57.50;49.58;62.73;;
41518;Laerm;27249;48.094;-1.690;2023-02-28T06:56:05;57.67;51.18;65.79;;
41518;Laerm;27249;48.094;-1.690;2023-02-28T06:58:31;66.67;53.13;90.71;;
41518;Laerm;27249;48.094;-1.690;2023-02-28T07:00:56;59.21;50.51;76.48;;
41518;Laerm;27249;48.094;-1.690;2023-02-28T07:03:21;64.20;49.79;81.12;;
41518;Laerm;27249;48.094;-1.690;2023-02-28T07:05:47;57.80;53.41;63.17;;
41518;Laerm;27249;48.094;-1.690;2023-02-28T07:08:13;58.59;51.67;67.12;;
41518;Laerm;27249;48.094;-1.690;2023-02-28T07:10:39;58.60;53.23;64.28;;
41518;Laerm;27249;48.094;-1.690;2023-02-28T07:13:05;57.30;48.71;64.54;;
41518;Laerm;27249;48.094;-1.690;2023-02-28T07:15:30;58.98;52.33;68.86;;
41518;Laerm;27249;48.094;-1.690;2023-02-28T07:17:56;58.61;50.03;69.55;;
41518;Laerm;27249;48.094;-1.690;2023-02-28T07:20:21;59.21;52.97;65.34;;
41518;Laerm;27249;48.094;-1.690;2023-02-28T07:22:47;57.95;49.16;65.85;;
41518;Laerm;27249;48.094;-1.690;2023-02-28T07:25:20;57.74;50.87;66.90;;
41518;Laerm;27249;48.094;-1.690;2023-02-28T07:27:45;62.04;50.17;91.86;;
41518;Laerm;27249;48.094;-1.690;2023-02-28T07:30:10;60.33;49.52;80.38;;
41518;Laerm;27249;48.094;-1.690;2023-02-28T07:35:59;60.00;51.89;68.83;;
41518;Laerm;27249;48.094;-1.690;2023-02-28T07:50:37;59.97;49.58;67.58;;
41518;Laerm;27249;48.094;-1.690;2023-02-28T07:53:07;59.70;53.89;66.08;;
41518;Laerm;27249;48.094;-1.690;2023-02-28T07:55:33;58.75;51.37;67.37;;
41518;Laerm;27249;48.094;-1.690;2023-02-28T07:57:58;58.55;48.96;65.44;;
41518;Laerm;27249;48.094;-1.690;2023-02-28T08:00:23;59.03;51.31;65.34;;
41518;Laerm;27249;48.094;-1.690;2023-02-28T08:02:49;60.42;54.19;65.59;;
41518;Laerm;27249;48.094;-1.690;2023-02-28T08:05:14;60.48;54.23;65.16;;
41518;Laerm;27249;48.094;-1.690;2023-02-28T08:10:42;60.08;52.48;66.75;;
41518;Laerm;27249;48.094;-1.690;2023-02-28T08:13:07;60.04;54.55;65.97;;
41518;Laerm;27249;48.094;-1.690;2023-02-28T08:15:43;59.66;54.65;64.94;;
41518;Laerm;27249;48.094;-1.690;2023-02-28T08:18:10;60.10;51.66;65.77;;
41518;Laerm;27249;48.094;-1.690;2023-02-28T08:20:35;59.98;51.53;67.30;;
41518;Laerm;27249;48.094;-1.690;2023-02-28T08:23:00;58.31;50.34;63.92;;
41518;Laerm;27249;48.094;-1.690;2023-02-28T08:25:25;56.77;47.83;64.57;;
41518;Laerm;27249;48.094;-1.690;2023-02-28T08:27:51;59.10;49.95;67.08;;
41518;Laerm;27249;48.094;-1.690;2023-02-28T08:30:17;57.87;49.57;64.20;;
41518;Laerm;27249;48.094;-1.690;2023-02-28T08:32:42;57.78;48.39;65.78;;
41518;Laerm;27249;48.094;-1.690;2023-02-28T08:35:07;57.07;49.50;66.04;;
41518;Laerm;27249;48.094;-1.690;2023-02-28T08:37:34;57.04;48.02;64.51;;
41518;Laerm;27249;48.094;-1.690;2023-02-28T08:39:59;58.32;50.64;74.63;;
41518;Laerm;27249;48.094;-1.690;2023-02-28T08:42:24;57.21;48.67;66.25;;
41518;Laerm;27249;48.094;-1.690;2023-02-28T08:44:50;57.60;48.77;62.94;;
41518;Laerm;27249;48.094;-1.690;2023-02-28T08:47:15;57.60;49.14;70.33;;
41518;Laerm;27249;48.094;-1.690;2023-02-28T08:49:40;57.69;50.40;66.33;;
41518;Laerm;27249;48.094;-1.690;2023-02-28T08:52:06;58.80;49.96;74.78;;
41518;Laerm;27249;48.094;-1.690;2023-02-28T08:54:31;57.85;50.97;65.20;;
41518;Laerm;27249;48.094;-1.690;2023-02-28T08:56:58;58.54;49.92;66.37;;
41518;Laerm;27249;48.094;-1.690;2023-02-28T08:59:23;59.35;53.10;65.71;;
41518;Laerm;27249;48.094;-1.690;2023-02-28T09:01:48;58.78;50.38;68.75;;
41518;Laerm;27249;48.094;-1.690;2023-02-28T09:04:14;57.83;48.29;65.58;;
41518;Laerm;27249;48.094;-1.690;2023-02-28T09:06:39;58.54;48.92;64.62;;
41518;Laerm;27249;48.094;-1.690;2023-02-28T09:09:04;58.96;51.93;65.40;;
41518;Laerm;27249;48.094;-1.690;2023-02-28T09:11:35;58.12;53.04;65.03;;
41518;Laerm;27249;48.094;-1.690;2023-02-28T09:14:00;57.42;51.60;66.70;;
41518;Laerm;27249;48.094;-1.690;2023-02-28T09:16:28;58.38;51.25;67.07;;
41518;Laerm;27249;48.094;-1.690;2023-02-28T09:18:53;57.31;49.60;67.84;;
41518;Laerm;27249;48.094;-1.690;2023-02-28T09:21:18;58.13;50.87;74.80;;
41518;Laerm;27249;48.094;-1.690;2023-02-28T09:23:44;57.65;49.25;68.86;;
41518;Laerm;27249;48.094;-1.690;2023-02-28T09:26:14;59.30;53.26;67.23;;
41518;Laerm;27249;48.094;-1.690;2023-02-28T09:28:39;57.94;49.85;68.03;;
41518;Laerm;27249;48.094;-1.690;2023-02-28T09:31:05;58.05;49.67;64.82;;
41518;Laerm;27249;48.094;-1.690;2023-02-28T09:33:30;57.22;48.70;64.73;;
41518;Laerm;27249;48.094;-1.690;2023-02-28T09:35:59;57.74;52.71;63.11;;
41518;Laerm;27249;48.094;-1.690;2023-02-28T09:38:25;56.98;48.90;64.19;;
41518;Laerm;27249;48.094;-1.690;2023-02-28T09:40:56;59.17;48.96;72.23;;
41518;Laerm;27249;48.094;-1.690;2023-02-28T09:43:23;57.96;51.60;65.49;;
41518;Laerm;27249;48.094;-1.690;2023-02-28T09:45:51;56.63;50.65;62.60;;
41518;Laerm;27249;48.094;-1.690;2023-02-28T09:48:20;58.33;51.39;67.23;;
41518;Laerm;27249;48.094;-1.690;2023-02-28T09:50:51;55.96;48.10;61.60;;
41518;Laerm;27249;48.094;-1.690;2023-02-28T09:53:26;56.39;48.23;63.71;;
41518;Laerm;27249;48.094;-1.690;2023-02-28T09:55:54;57.91;47.61;64.80;;
41518;Laerm;27249;48.094;-1.690;2023-02-28T10:04:02;56.37;51.54;62.93;;
41518;Laerm;27249;48.094;-1.690;2023-02-28T10:06:30;57.00;49.10;67.75;;
41518;Laerm;27249;48.094;-1.690;2023-02-28T10:11:26;57.34;51.39;63.33;;
41518;Laerm;27249;48.094;-1.690;2023-02-28T10:16:27;57.45;50.20;66.75;;
41518;Laerm;27249;48.094;-1.690;2023-02-28T10:18:59;57.94;48.60;66.26;;
41518;Laerm;27249;48.094;-1.690;2023-02-28T10:22:10;57.52;50.79;65.81;;
41518;Laerm;27249;48.094;-1.690;2023-02-28T10:26:44;57.87;46.69;69.68;;
41518;Laerm;27249;48.094;-1.690;2023-02-28T10:29:10;57.25;51.17;68.54;;
41518;Laerm;27249;48.094;-1.690;2023-02-28T10:31:35;58.02;49.19;65.07;;
41518;Laerm;27249;48.094;-1.690;2023-02-28T10:34:01;57.35;48.45;66.08;;
41518;Laerm;27249;48.094;-1.690;2023-02-28T10:36:28;58.42;52.65;66.03;;
41518;Laerm;27249;48.094;-1.690;2023-02-28T10:38:53;58.12;51.45;67.56;;
41518;Laerm;27249;48.094;-1.690;2023-02-28T10:41:29;59.19;54.68;68.76;;
41518;Laerm;27249;48.094;-1.690;2023-02-28T10:44:17;59.16;54.04;69.44;;
41518;Laerm;27249;48.094;-1.690;2023-02-28T10:46:44;65.76;52.88;83.97;;
41518;Laerm;27249;48.094;-1.690;2023-02-28T10:49:28;57.89;50.34;64.41;;
41518;Laerm;27249;48.094;-1.690;2023-02-28T10:51:58;58.89;54.04;65.93;;
41518;Laerm;27249;48.094;-1.690;2023-02-28T10:59:33;57.20;49.07;71.05;;
41518;Laerm;27249;48.094;-1.690;2023-02-28T11:01:58;55.75;46.76;62.33;;
41518;Laerm;27249;48.094;-1.690;2023-02-28T11:09:41;57.01;50.18;66.65;;
41518;Laerm;27249;48.094;-1.690;2023-02-28T11:12:20;57.53;50.60;67.10;;
41518;Laerm;27249;48.094;-1.690;2023-02-28T11:14:51;58.01;51.37;70.14;;
41518;Laerm;27249;48.094;-1.690;2023-02-28T11:17:21;57.10;49.82;66.15;;
41518;Laerm;27249;48.094;-1.690;2023-02-28T11:19:47;57.71;51.21;64.86;;
41518;Laerm;27249;48.094;-1.690;2023-02-28T11:22:18;57.86;52.04;68.14;;
41518;Laerm;27249;48.094;-1.690;2023-02-28T11:24:45;59.69;53.17;67.31;;
41518;Laerm;27249;48.094;-1.690;2023-02-28T11:29:56;60.76;53.02;79.39;;
41518;Laerm;27249;48.094;-1.690;2023-02-28T11:32:30;59.26;52.38;72.70;;
41518;Laerm;27249;48.094;-1.690;2023-02-28T11:35:00;59.58;51.75;72.08;;
41518;Laerm;27249;48.094;-1.690;2023-02-28T11:37:26;60.74;51.81;71.62;;
41518;Laerm;27249;48.094;-1.690;2023-02-28T11:39:52;58.57;51.28;67.09;;
41518;Laerm;27249;48.094;-1.690;2023-02-28T11:42:32;62.76;51.13;81.95;;
41518;Laerm;27249;48.094;-1.690;2023-02-28T11:50:21;57.36;49.04;69.57;;
41518;Laerm;27249;48.094;-1.690;2023-02-28T11:52:52;57.23;49.53;70.94;;
41518;Laerm;27249;48.094;-1.690;2023-02-28T11:55:25;54.76;46.28;64.76;;
41518;Laerm;27249;48.094;-1.690;2023-02-28T12:00:26;55.81;47.28;63.21;;
41518;Laerm;27249;48.094;-1.690;2023-02-28T12:05:39;56.80;49.11;63.76;;
41518;Laerm;27249;48.094;-1.690;2023-02-28T12:13:51;59.13;53.12;71.02;;
41518;Laerm;27249;48.094;-1.690;2023-02-28T12:26:45;55.61;48.71;64.56;;
41518;Laerm;27249;48.094;-1.690;2023-02-28T12:29:19;57.08;48.80;65.37;;
41518;Laerm;27249;48.094;-1.690;2023-02-28T12:34:20;57.72;47.48;64.92;;
41518;Laerm;27249;48.094;-1.690;2023-02-28T12:36:48;57.97;47.36;65.46;;
41518;Laerm;27249;48.094;-1.690;2023-02-28T12:39:18;57.66;51.14;68.09;;
41518;Laerm;27249;48.094;-1.690;2023-02-28T12:44:12;55.70;47.79;68.36;;
41518;Laerm;27249;48.094;-1.690;2023-02-28T12:46:43;57.71;49.62;65.11;;
41518;Laerm;27249;48.094;-1.690;2023-02-28T12:51:56;57.52;51.08;65.88;;
41518;Laerm;27249;48.094;-1.690;2023-02-28T12:54:29;56.33;46.78;61.68;;
41518;Laerm;27249;48.094;-1.690;2023-02-28T12:57:03;57.63;51.40;63.52;;
41518;Laerm;27249;48.094;-1.690;2023-02-28T13:00:14;60.09;47.88;75.00;;
41518;Laerm;27249;48.094;-1.690;2023-02-28T13:09:53;56.68;48.00;62.81;;
41518;Laerm;27249;48.094;-1.690;2023-02-28T13:12:19;56.47;49.33;62.79;;
41518;Laerm;27249;48.094;-1.690;2023-02-28T13:14:45;56.33;48.40;62.95;;
41518;Laerm;27249;48.094;-1.690;2023-02-28T13:17:11;57.32;48.70;67.79;;
41518;Laerm;27249;48.094;-1.690;2023-02-28T13:19:42;57.72;47.52;66.59;;
41518;Laerm;27249;48.094;-1.690;2023-02-28T13:27:38;58.29;49.28;69.38;;
41518;Laerm;27249;48.094;-1.690;2023-02-28T13:33:00;56.45;47.08;67.37;;
41518;Laerm;27249;48.094;-1.690;2023-02-28T13:35:35;57.08;48.36;65.90;;
41518;Laerm;27249;48.094;-1.690;2023-02-28T13:38:09;57.08;50.72;65.13;;
41518;Laerm;27249;48.094;-1.690;2023-02-28T13:40:37;57.67;48.94;66.79;;
41518;Laerm;27249;48.094;-1.690;2023-02-28T13:43:05;58.05;51.74;63.55;;
41518;Laerm;27249;48.094;-1.690;2023-02-28T13:45:32;57.92;52.22;64.49;;
41518;Laerm;27249;48.094;-1.690;2023-02-28T13:48:04;58.24;50.41;65.23;;
41518;Laerm;27249;48.094;-1.690;2023-02-28T13:50:36;58.05;51.23;67.94;;
41518;Laerm;27249;48.094;-1.690;2023-02-28T13:57:58;56.54;50.43;63.36;;
41518;Laerm;27249;48.094;-1.690;2023-02-28T14:03:07;57.93;50.92;66.01;;
41518;Laerm;27249;48.094;-1.690;2023-02-28T14:05:36;58.09;50.98;66.39;;
41518;Laerm;27249;48.094;-1.690;2023-02-28T14:10:31;58.34;53.02;63.59;;
41518;Laerm;27249;48.094;-1.690;2023-02-28T14:12:59;57.35;49.75;63.02;;
41518;Laerm;27249;48.094;-1.690;2023-02-28T14:18:25;57.57;49.85;65.80;;
41518;Laerm;27249;48.094;-1.690;2023-02-28T14:20:53;59.72;51.22;68.60;;
41518;Laerm;27249;48.094;-1.690;2023-02-28T14:31:01;57.67;50.68;70.92;;
41518;Laerm;27249;48.094;-1.690;2023-02-28T14:36:17;57.71;50.19;68.75;;
41518;Laerm;27249;48.094;-1.690;2023-02-28T14:38:47;56.83;49.08;64.93;;
41518;Laerm;27249;48.094;-1.690;2023-02-28T14:41:21;57.73;50.60;66.25;;
41518;Laerm;27249;48.094;-1.690;2023-02-28T14:43:50;56.96;51.09;67.06;;
41518;Laerm;27249;48.094;-1.690;2023-02-28T14:46:16;58.44;50.77;75.83;;
41518;Laerm;27249;48.094;-1.690;2023-02-28T14:48:44;57.35;51.11;66.04;;
41518;Laerm;27249;48.094;-1.690;2023-02-28T14:51:10;58.41;51.06;63.83;;
41518;Laerm;27249;48.094;-1.690;2023-02-28T14:53:36;57.35;49.63;63.65;;
41518;Laerm;27249;48.094;-1.690;2023-02-28T14:56:02;57.80;49.10;64.62;;
41518;Laerm;27249;48.094;-1.690;2023-02-28T14:58:29;57.76;52.22;63.83;;
41518;Laerm;27249;48.094;-1.690;2023-02-28T15:00:56;58.22;48.74;64.70;;
41518;Laerm;27249;48.094;-1.690;2023-02-28T15:03:29;59.05;50.81;68.24;;
41518;Laerm;27249;48.094;-1.690;2023-02-28T15:05:56;59.28;51.67;68.30;;
41518;Laerm;27249;48.094;-1.690;2023-02-28T15:08:22;58.54;49.79;70.54;;
41518;Laerm;27249;48.094;-1.690;2023-02-28T15:13:19;57.91;50.80;69.00;;
41518;Laerm;27249;48.094;-1.690;2023-02-28T15:15:58;58.72;49.75;67.40;;
41518;Laerm;27249;48.094;-1.690;2023-02-28T15:18:57;57.55;50.46;63.88;;
41518;Laerm;27249;48.094;-1.690;2023-02-28T15:21:25;67.09;48.81;86.63;;
41518;Laerm;27249;48.094;-1.690;2023-02-28T15:24:35;59.23;51.30;74.91;;
41518;Laerm;27249;48.094;-1.690;2023-02-28T15:26:42;57.93;50.56;66.04;;
41518;Laerm;27249;48.094;-1.690;2023-02-28T15:29:11;59.68;53.55;68.07;;
41518;Laerm;27249;48.094;-1.690;2023-02-28T15:31:48;58.66;50.83;64.28;;
41518;Laerm;27249;48.094;-1.690;2023-02-28T15:34:18;57.82;48.63;67.57;;
41518;Laerm;27249;48.094;-1.690;2023-02-28T15:36:44;58.69;53.27;75.20;;
41518;Laerm;27249;48.094;-1.690;2023-02-28T15:39:23;57.72;53.69;62.96;;
41518;Laerm;27249;48.094;-1.690;2023-02-28T15:41:49;58.94;53.17;67.88;;
41518;Laerm;27249;48.094;-1.690;2023-02-28T15:44:25;57.89;50.75;66.35;;
41518;Laerm;27249;48.094;-1.690;2023-02-28T15:49:20;58.25;52.80;70.69;;
41518;Laerm;27249;48.094;-1.690;2023-02-28T15:51:46;58.25;52.53;69.70;;
41518;Laerm;27249;48.094;-1.690;2023-02-28T15:54:15;58.07;53.49;63.65;;
41518;Laerm;27249;48.094;-1.690;2023-02-28T15:56:43;58.01;52.55;64.77;;
41518;Laerm;27249;48.094;-1.690;2023-02-28T15:59:14;58.13;52.06;64.84;;
41518;Laerm;27249;48.094;-1.690;2023-02-28T16:01:40;58.47;49.82;67.47;;
41518;Laerm;27249;48.094;-1.690;2023-02-28T16:04:11;58.52;53.57;64.61;;
41518;Laerm;27249;48.094;-1.690;2023-02-28T16:09:03;56.81;51.18;62.66;;
41518;Laerm;27249;48.094;-1.690;2023-02-28T16:11:28;66.34;50.31;86.13;;
41518;Laerm;27249;48.094;-1.690;2023-02-28T16:13:54;58.75;52.87;66.22;;
41518;Laerm;27249;48.094;-1.690;2023-02-28T16:16:23;58.11;53.64;65.20;;
41518;Laerm;27249;48.094;-1.690;2023-02-28T16:18:49;58.36;51.43;65.88;;
41518;Laerm;27249;48.094;-1.690;2023-02-28T16:21:14;58.76;53.94;71.79;;
41518;Laerm;27249;48.094;-1.690;2023-02-28T16:23:40;58.12;51.30;71.26;;